Weather at Virginia Beach Municipal Heliport

Public forecast

Using degrees Fahrenheit for public forecast. Weather courtesy of forecast.io.

Closest aviation weather report (METAR) to Virginia Beach Municipal Heliport

Closest report is Oceana Naval Air Station, 4.4 nm (8.1 km) NNE. Retrieved 2020/09/20 23:56 UTC (43 minutes ago):

KNTU 202356Z 05014G22KT 10SM BKN047 BKN055 19/07 A3039 RMK AO2 SLP294 T01890072 10233 20183 51009

Closest aviation forecast (TAF) to Virginia Beach Municipal Heliport

Forecast is more than 12 hours old.

Closest forecast is Oceana Naval Air Station, 4.4 nm (8.1 km) NNE. Retrieved 2020-05-12 23:47 UTC (4 months ago):

TAF KNTU 112000Z 1123/1223 33010KT 9999 SCT080 QNH2990INS TEMPO 1123/1205 VRB06KT BKN080 FM121800 28006KT 9999 BKN050 QNH3017INS T08/1210Z T16/1219Z FN20051